Time;durP1;ratioP1;P1;durP2;ratioP2;P2;SDS_P1;SDS_P2;PMS_P1;PMS_P2;Temp;Humidity;BMP_temperature;BMP_pressure;BME280_temperature;BME280_humidity;BME280_pressure;Samples;Min_cycle;Max_cycle;Signal;HPM_P1;HPM_P2
2022/04/07 00:00:18;;;;;;;22.67;2.90;;;18.30;99.90;;;;;;5070495;28;20059;-73
2022/04/07 00:02:46;;;;;;;19.05;2.75;;;18.30;99.90;;;;;;5070614;28;20060;-72
2022/04/07 00:05:13;;;;;;;17.55;2.42;;;18.30;99.90;;;;;;5071579;28;20036;-73
2022/04/07 00:07:41;;;;;;;12.45;1.95;;;18.20;99.90;;;;;;5070428;28;20029;-73
2022/04/07 00:10:08;;;;;;;22.25;3.33;;;18.20;99.90;;;;;;5071721;28;20029;-74
2022/04/07 00:12:37;;;;;;;14.38;2.70;;;18.30;99.90;;;;;;5071838;28;20032;-73
2022/04/07 00:15:05;;;;;;;14.38;2.22;;;18.30;99.90;;;;;;5070302;28;20028;-72
2022/04/07 00:17:32;;;;;;;14.15;2.35;;;18.30;99.90;;;;;;5071749;28;20046;-74
2022/04/07 00:19:59;;;;;;;19.73;3.25;;;18.30;99.90;;;;;;5071989;28;20354;-73
2022/04/07 00:22:27;;;;;;;26.00;3.53;;;18.20;99.90;;;;;;5073153;28;20381;-73
2022/04/07 00:24:54;;;;;;;16.42;2.95;;;18.20;99.90;;;;;;5075516;28;20095;-73
2022/04/07 00:27:22;;;;;;;15.73;2.22;;;18.10;99.90;;;;;;5074242;28;20029;-73
2022/04/07 00:29:49;;;;;;;16.00;2.47;;;17.80;99.90;;;;;;5074092;28;20063;-72
2022/04/07 00:32:16;;;;;;;23.20;2.70;;;17.80;99.90;;;;;;5074070;28;20055;-72
2022/04/07 00:34:46;;;;;;;19.17;2.67;;;17.80;99.90;;;;;;5075155;28;20123;-73
2022/04/07 00:37:14;;;;;;;21.67;2.83;;;17.80;99.90;;;;;;5074033;28;20560;-72
2022/04/07 00:39:42;;;;;;;17.23;2.85;;;17.80;99.90;;;;;;5075222;28;20475;-75
2022/04/07 00:42:09;;;;;;;22.17;3.25;;;17.80;99.90;;;;;;5075362;28;20091;-76
2022/04/07 00:44:36;;;;;;;24.75;3.75;;;17.90;99.90;;;;;;5075137;28;20116;-74
2022/04/07 00:47:04;;;;;;;20.13;3.25;;;18.00;99.90;;;;;;5075170;28;20035;-74
2022/04/07 00:49:31;;;;;;;16.58;3.33;;;18.10;99.90;;;;;;5075152;28;20103;-74
2022/04/07 00:51:59;;;;;;;20.02;3.03;;;18.10;99.90;;;;;;5075024;28;20020;-72
2022/04/07 00:54:26;;;;;;;20.02;4.15;;;18.10;99.90;;;;;;5074998;28;20028;-71
2022/04/07 00:56:56;;;;;;;26.10;4.95;;;18.10;99.90;;;;;;5075297;28;20058;-72
2022/04/07 00:59:24;;;;;;;25.23;3.40;;;18.10;99.90;;;;;;5075064;28;20021;-71
2022/04/07 01:01:51;;;;;;;26.00;6.10;;;18.00;99.90;;;;;;5074783;28;20687;-73
2022/04/07 01:04:19;;;;;;;22.00;3.30;;;18.10;99.90;;;;;;5073335;28;20105;-71
2022/04/07 01:06:49;;;;;;;25.08;3.83;;;18.00;99.90;;;;;;5074813;28;20061;-72
2022/04/07 01:09:18;;;;;;;24.05;4.43;;;17.90;99.90;;;;;;5074840;28;20031;-71
2022/04/07 01:11:46;;;;;;;21.02;3.80;;;17.90;99.90;;;;;;5074692;28;20047;-71
2022/04/07 01:14:14;;;;;;;26.75;3.80;;;18.00;99.90;;;;;;5074645;28;20409;-70
2022/04/07 01:16:41;;;;;;;25.50;4.18;;;17.90;99.90;;;;;;5073238;28;20016;-71
2022/04/07 01:19:09;;;;;;;20.80;3.22;;;17.90;99.90;;;;;;5074708;28;20070;-71
2022/04/07 01:21:38;;;;;;;22.70;3.45;;;17.90;99.90;;;;;;5074537;28;20074;-70
2022/04/07 01:24:09;;;;;;;20.75;3.58;;;17.80;99.90;;;;;;5074558;28;20054;-71
2022/04/07 01:26:42;;;;;;;22.08;3.03;;;17.80;99.90;;;;;;5073154;28;20431;-71
2022/04/07 01:29:19;;;;;;;18.90;3.47;;;17.80;99.90;;;;;;5073257;28;20024;-72
2022/04/07 01:31:46;;;;;;;28.88;3.53;;;17.80;99.90;;;;;;5074249;28;20472;-72
2022/04/07 01:34:18;;;;;;;21.40;3.88;;;17.90;99.90;;;;;;5072539;28;20024;-71
2022/04/07 01:36:49;;;;;;;26.10;4.32;;;17.90;99.90;;;;;;5074257;28;20066;-72
2022/04/07 01:39:24;;;;;;;23.25;4.15;;;18.00;99.90;;;;;;5073023;28;20385;-72
2022/04/07 01:41:52;;;;;;;20.55;3.55;;;18.10;99.90;;;;;;5074230;28;20016;-71
2022/04/07 01:44:20;;;;;;;16.35;2.13;;;18.10;99.90;;;;;;5074196;28;20021;-71
2022/04/07 01:46:49;;;;;;;18.60;2.60;;;18.10;99.90;;;;;;5074005;28;20055;-71
2022/04/07 01:49:17;;;;;;;24.45;3.60;;;18.20;99.90;;;;;;5072633;28;20115;-72
2022/04/07 01:51:46;;;;;;;17.55;2.83;;;18.20;99.90;;;;;;5073896;28;20543;-72
2022/04/07 01:54:15;;;;;;;21.25;3.35;;;18.20;99.90;;;;;;5072603;28;20024;-71
2022/04/07 01:56:43;;;;;;;22.00;3.60;;;18.30;99.90;;;;;;5073832;28;20538;-71
2022/04/07 01:59:12;;;;;;;23.33;3.35;;;18.30;99.90;;;;;;5072496;28;20024;-72
2022/04/07 02:01:40;;;;;;;24.27;3.63;;;18.40;99.90;;;;;;5073692;28;20468;-72
2022/04/07 02:04:07;;;;;;;16.25;3.03;;;18.40;99.90;;;;;;5073552;28;20044;-72
2022/04/07 02:06:34;;;;;;;23.27;4.25;;;18.40;99.90;;;;;;5073652;28;20017;-71
2022/04/07 02:09:02;;;;;;;21.20;3.53;;;18.40;99.90;;;;;;5073638;28;20039;-71
2022/04/07 02:11:32;;;;;;;23.23;3.65;;;18.40;99.90;;;;;;5072222;28;20024;-71
2022/04/07 02:13:59;;;;;;;19.80;2.80;;;18.40;99.90;;;;;;5072167;28;20028;-71
2022/04/07 02:16:27;;;;;;;22.27;3.20;;;18.40;99.90;;;;;;5073484;28;20024;-72
2022/04/07 02:18:55;;;;;;;18.40;2.67;;;18.40;99.90;;;;;;5073305;28;20036;-71
2022/04/07 02:21:22;;;;;;;18.70;3.25;;;18.40;99.90;;;;;;5073401;28;20047;-71
2022/04/07 02:23:51;;;;;;;19.48;3.45;;;18.40;99.90;;;;;;5073355;28;20385;-72
2022/04/07 02:26:19;;;;;;;22.80;3.55;;;18.40;99.90;;;;;;5073298;28;20392;-71
2022/04/07 02:28:47;;;;;;;15.27;2.50;;;18.40;99.90;;;;;;5073203;28;20031;-71
2022/04/07 02:31:14;;;;;;;17.95;2.97;;;18.40;99.90;;;;;;5073108;28;20052;-71
2022/04/07 02:33:41;;;;;;;13.93;2.80;;;18.40;99.90;;;;;;5073080;28;20036;-70
2022/04/07 02:36:10;;;;;;;14.80;2.85;;;18.40;99.90;;;;;;5071738;28;20027;-70
2022/04/07 02:38:37;;;;;;;13.82;2.13;;;18.40;99.90;;;;;;5072933;28;20024;-70
2022/04/07 02:41:05;;;;;;;12.18;3.05;;;18.30;99.90;;;;;;5071579;28;20124;-70
2022/04/07 02:43:32;;;;;;;15.75;3.03;;;18.20;99.90;;;;;;5072869;28;20481;-71
2022/04/07 02:45:59;;;;;;;14.77;3.03;;;18.30;99.90;;;;;;5072174;28;20388;-71
2022/04/07 02:48:27;;;;;;;16.30;3.05;;;18.30;99.90;;;;;;5071478;28;20028;-70
2022/04/07 02:50:54;;;;;;;16.33;2.78;;;18.30;99.90;;;;;;5072875;28;20075;-71
2022/04/07 02:53:21;;;;;;;12.10;2.83;;;18.30;99.90;;;;;;5072806;28;20048;-70
2022/04/07 02:55:49;;;;;;;17.52;2.45;;;18.20;99.90;;;;;;5071389;28;20025;-70
2022/04/07 02:58:16;;;;;;;23.10;3.45;;;18.20;99.90;;;;;;5072623;28;20051;-71
2022/04/07 03:00:43;;;;;;;21.20;3.65;;;18.20;99.90;;;;;;5072656;28;20021;-71
2022/04/07 03:03:11;;;;;;;28.02;4.22;;;18.30;99.90;;;;;;5071287;28;20429;-71
2022/04/07 03:05:38;;;;;;;33.22;4.45;;;18.40;99.90;;;;;;5072321;28;20049;-71
2022/04/07 03:08:06;;;;;;;24.02;3.80;;;18.60;99.90;;;;;;5072473;28;20346;-72
2022/04/07 03:10:33;;;;;;;27.50;4.25;;;18.70;99.90;;;;;;5072504;28;20427;-70
2022/04/07 03:13:00;;;;;;;28.08;3.55;;;18.90;99.90;;;;;;5072464;28;20027;-71
2022/04/07 03:15:27;;;;;;;22.92;3.50;;;18.90;99.90;;;;;;5072255;28;20393;-71
2022/04/07 03:17:55;;;;;;;23.13;3.13;;;18.90;99.90;;;;;;5072431;28;20023;-70
2022/04/07 03:20:22;;;;;;;22.17;3.35;;;19.00;99.90;;;;;;5071022;28;20067;-70
2022/04/07 03:22:49;;;;;;;27.70;3.67;;;19.10;99.90;;;;;;5072308;28;20071;-71
2022/04/07 03:25:17;;;;;;;26.33;3.55;;;19.10;99.90;;;;;;5070929;28;20043;-71
2022/04/07 03:27:44;;;;;;;22.00;3.13;;;19.20;99.90;;;;;;5071022;28;20028;-70
2022/04/07 03:30:12;;;;;;;23.52;3.22;;;19.20;99.90;;;;;;5072248;28;20033;-71
2022/04/07 03:32:39;;;;;;;25.52;3.92;;;19.30;99.90;;;;;;5072176;28;20020;-71
2022/04/07 03:35:07;;;;;;;20.45;2.80;;;19.30;99.90;;;;;;5070698;28;20033;-72
2022/04/07 03:37:35;;;;;;;21.85;3.22;;;19.30;99.90;;;;;;5070900;28;20056;-70
2022/04/07 03:40:02;;;;;;;15.80;2.53;;;19.20;99.90;;;;;;5072095;28;20025;-71
2022/04/07 03:42:30;;;;;;;22.65;3.17;;;19.20;99.90;;;;;;5072181;28;20018;-72
2022/04/07 03:44:57;;;;;;;17.02;3.65;;;19.20;99.90;;;;;;5072063;28;20488;-71
2022/04/07 03:47:24;;;;;;;20.75;3.65;;;19.20;99.90;;;;;;5072161;28;20041;-71
2022/04/07 03:49:52;;;;;;;30.48;4.85;;;19.20;99.90;;;;;;5070633;28;20508;-73
2022/04/07 03:52:19;;;;;;;27.52;3.45;;;19.20;99.90;;;;;;5072091;28;20031;-72
2022/04/07 03:54:46;;;;;;;23.30;3.70;;;19.20;99.90;;;;;;5071970;28;20025;-75
2022/04/07 03:57:14;;;;;;;23.58;3.13;;;19.20;99.90;;;;;;5073481;28;20021;-73
2022/04/07 03:59:42;;;;;;;18.67;2.70;;;19.20;99.90;;;;;;5075993;28;20012;-73
2022/04/07 04:02:10;;;;;;;15.38;3.28;;;19.10;99.90;;;;;;5074654;28;20497;-71
2022/04/07 04:04:38;;;;;;;16.15;2.33;;;19.10;99.90;;;;;;5075573;28;20417;-71
2022/04/07 04:07:06;;;;;;;16.75;2.78;;;19.00;99.90;;;;;;5074527;28;20025;-72
2022/04/07 04:09:34;;;;;;;19.70;2.88;;;19.10;99.90;;;;;;5075841;28;20031;-72
2022/04/07 04:12:01;;;;;;;21.15;2.92;;;19.00;99.90;;;;;;5075753;28;20160;-73
2022/04/07 04:14:29;;;;;;;16.83;3.55;;;19.00;99.90;;;;;;5075624;28;20024;-73
2022/04/07 04:16:57;;;;;;;18.27;2.95;;;19.10;99.90;;;;;;5075555;28;20020;-73
2022/04/07 04:19:24;;;;;;;20.70;2.63;;;19.10;99.90;;;;;;5074186;28;20033;-72
2022/04/07 04:21:51;;;;;;;19.20;3.33;;;19.10;99.90;;;;;;5074039;28;20473;-71
2022/04/07 04:24:19;;;;;;;22.35;3.60;;;19.10;99.90;;;;;;5075547;28;20024;-72
2022/04/07 04:26:46;;;;;;;19.92;2.75;;;19.10;99.90;;;;;;5075373;28;20040;-72
2022/04/07 04:29:13;;;;;;;17.67;2.90;;;19.10;99.90;;;;;;5075368;28;20031;-70
2022/04/07 04:31:41;;;;;;;20.58;2.97;;;19.10;99.90;;;;;;5075260;28;20021;-71
2022/04/07 04:34:08;;;;;;;22.05;4.05;;;19.10;99.90;;;;;;5075199;28;20024;-72
2022/04/07 04:36:35;;;;;;;18.58;3.10;;;19.10;99.90;;;;;;5074970;28;20096;-71
2022/04/07 04:39:03;;;;;;;23.85;4.18;;;19.10;99.90;;;;;;5075196;28;20435;-71
2022/04/07 04:41:31;;;;;;;18.63;3.10;;;19.10;99.90;;;;;;5074927;28;20025;-71
2022/04/07 04:44:00;;;;;;;20.95;3.30;;;19.20;99.90;;;;;;5075132;28;20442;-72
2022/04/07 04:46:28;;;;;;;19.85;3.15;;;19.20;99.90;;;;;;5073595;28;20028;-70
2022/04/07 04:48:55;;;;;;;21.63;3.65;;;19.10;99.90;;;;;;5073572;28;20033;-71
2022/04/07 04:51:23;;;;;;;19.77;3.28;;;19.00;99.90;;;;;;5074791;28;20024;-70
2022/04/07 04:53:50;;;;;;;19.80;2.63;;;18.90;99.90;;;;;;5074877;28;20396;-72
2022/04/07 04:56:17;;;;;;;23.20;3.03;;;18.80;99.90;;;;;;5074698;28;20028;-72
2022/04/07 04:58:44;;;;;;;17.70;3.53;;;18.70;99.90;;;;;;5074793;28;20465;-71
2022/04/07 05:01:12;;;;;;;17.75;3.10;;;18.70;99.90;;;;;;5073273;28;20477;-71
2022/04/07 05:03:39;;;;;;;19.02;3.20;;;18.50;99.90;;;;;;5074412;28;20129;-71
2022/04/07 05:06:06;;;;;;;18.10;3.28;;;18.40;99.90;;;;;;5073380;28;20081;-73
2022/04/07 05:08:34;;;;;;;26.85;4.57;;;18.30;99.90;;;;;;5072386;28;20489;-74
2022/04/07 05:11:01;;;;;;;18.52;2.88;;;18.20;99.90;;;;;;5074572;28;20087;-74
2022/04/07 05:13:28;;;;;;;20.45;4.40;;;18.20;99.90;;;;;;5074464;28;20021;-71
2022/04/07 05:15:56;;;;;;;23.65;4.22;;;18.20;99.90;;;;;;5074654;28;20438;-70
2022/04/07 05:18:23;;;;;;;19.40;3.45;;;18.30;99.90;;;;;;5073069;28;20074;-71
2022/04/07 05:20:50;;;;;;;20.92;4.30;;;18.30;99.90;;;;;;5074663;28;20017;-72
2022/04/07 05:23:18;;;;;;;22.33;3.15;;;18.20;99.90;;;;;;5074310;28;20097;-70
2022/04/07 05:25:46;;;;;;;24.83;4.97;;;18.20;99.90;;;;;;5072918;28;20025;-71
2022/04/07 05:28:13;;;;;;;18.65;3.63;;;18.20;99.90;;;;;;5074357;28;20063;-70
2022/04/07 05:30:40;;;;;;;22.05;3.42;;;18.20;99.90;;;;;;5074530;28;20086;-68
2022/04/07 05:33:08;;;;;;;21.75;3.53;;;18.20;99.90;;;;;;5074398;28;20483;-69
2022/04/07 05:35:35;;;;;;;24.02;3.72;;;18.30;99.90;;;;;;5074230;28;20024;-71
2022/04/07 05:38:03;;;;;;;21.05;4.10;;;18.20;99.90;;;;;;5074210;28;20484;-70
2022/04/07 05:40:33;;;;;;;24.30;3.47;;;18.20;99.90;;;;;;5074156;28;20028;-71
2022/04/07 05:43:01;;;;;;;26.60;4.05;;;18.20;99.90;;;;;;5074024;28;20017;-72
2022/04/07 05:45:29;;;;;;;22.67;3.83;;;18.20;99.90;;;;;;5072748;28;20030;-71
2022/04/07 05:47:56;;;;;;;21.52;3.25;;;18.20;99.90;;;;;;5072607;28;20024;-71
2022/04/07 05:50:23;;;;;;;26.83;4.05;;;18.20;99.90;;;;;;5072628;28;20078;-71
2022/04/07 05:52:51;;;;;;;21.13;3.65;;;18.20;99.90;;;;;;5072632;28;20082;-71
2022/04/07 05:55:18;;;;;;;26.50;4.22;;;18.30;99.90;;;;;;5072485;28;20116;-72
2022/04/07 05:57:45;;;;;;;29.48;5.13;;;18.30;99.90;;;;;;5072450;28;20052;-72
2022/04/07 06:00:17;;;;;;;18.63;2.85;;;18.30;99.90;;;;;;5073838;28;20388;-72
2022/04/07 06:02:46;;;;;;;21.92;3.30;;;18.30;99.90;;;;;;5073701;28;20029;-71
2022/04/07 06:05:18;;;;;;;22.52;3.53;;;18.30;99.90;;;;;;5073463;28;20161;-72
2022/04/07 06:07:46;;;;;;;26.35;3.65;;;18.30;99.90;;;;;;5073623;28;20455;-72
2022/04/07 06:10:14;;;;;;;20.60;2.85;;;18.20;99.90;;;;;;5073591;28;20104;-71
2022/04/07 06:12:43;;;;;;;21.52;3.67;;;18.20;99.90;;;;;;5072192;28;20024;-71
2022/04/07 06:15:11;;;;;;;22.45;3.85;;;18.20;99.90;;;;;;5073341;28;20114;-71
2022/04/07 06:17:41;;;;;;;25.95;3.35;;;18.20;99.90;;;;;;5072090;28;20507;-72
2022/04/07 06:20:12;;;;;;;21.80;4.05;;;18.20;99.90;;;;;;5073320;28;20043;-72
2022/04/07 06:22:41;;;;;;;23.70;3.83;;;18.20;99.90;;;;;;5073377;28;20020;-73
2022/04/07 06:25:09;;;;;;;25.35;6.28;;;18.20;99.90;;;;;;5073150;28;20543;-72
2022/04/07 06:27:38;;;;;;;27.80;3.67;;;18.20;99.90;;;;;;5071904;28;20028;-74
2022/04/07 06:30:07;;;;;;;22.38;3.28;;;18.20;99.90;;;;;;5073167;28;20446;-74
2022/04/07 06:32:34;;;;;;;26.25;3.88;;;18.20;99.90;;;;;;5073127;28;20089;-74
2022/04/07 06:35:02;;;;;;;24.10;4.03;;;18.30;99.90;;;;;;5071520;28;20028;-73
2022/04/07 06:37:29;;;;;;;21.13;3.47;;;18.30;99.90;;;;;;5072982;28;20503;-74
2022/04/07 06:40:04;;;;;;;29.98;4.65;;;18.20;99.90;;;;;;5071617;28;20032;-74
2022/04/07 06:42:31;;;;;;;20.10;3.30;;;18.30;99.90;;;;;;5072948;28;20104;-75
2022/04/07 06:44:59;;;;;;;23.92;3.75;;;18.20;99.90;;;;;;5071567;28;20485;-74
2022/04/07 06:47:26;;;;;;;24.13;3.53;;;18.20;99.90;;;;;;5071624;28;20120;-74
2022/04/07 06:49:53;;;;;;;29.75;4.22;;;18.20;99.90;;;;;;5072815;28;20078;-73
2022/04/07 06:52:21;;;;;;;23.85;3.83;;;18.20;99.90;;;;;;5072780;28;20032;-74
2022/04/07 06:54:48;;;;;;;25.00;4.32;;;18.20;99.90;;;;;;5071283;28;20033;-75
2022/04/07 06:57:15;;;;;;;19.67;3.42;;;18.20;99.90;;;;;;5071317;28;20393;-75
2022/04/07 06:59:43;;;;;;;22.80;4.38;;;18.20;99.90;;;;;;5071287;28;20024;-75
2022/04/07 07:02:10;;;;;;;24.42;4.43;;;18.20;99.90;;;;;;5071239;28;20387;-76
2022/04/07 07:04:37;;;;;;;22.92;3.60;;;18.20;99.90;;;;;;5072155;28;20048;-75
2022/04/07 07:07:05;;;;;;;24.70;3.50;;;18.10;99.90;;;;;;5072421;28;20028;-75
2022/04/07 07:09:32;;;;;;;24.02;4.60;;;18.10;99.90;;;;;;5071036;28;20518;-75
2022/04/07 07:12:00;;;;;;;23.50;3.97;;;18.10;99.90;;;;;;5072416;28;20031;-75
2022/04/07 07:14:27;;;;;;;24.30;4.30;;;18.10;99.90;;;;;;5072257;28;20021;-75
2022/04/07 07:16:54;;;;;;;22.52;3.67;;;18.10;99.90;;;;;;5070973;28;20031;-76
2022/04/07 07:19:26;;;;;;;23.05;4.10;;;18.10;99.90;;;;;;5072355;28;20046;-75
2022/04/07 07:21:55;;;;;;;21.30;4.32;;;18.10;99.90;;;;;;5072304;28;20049;-75
2022/04/07 07:24:22;;;;;;;25.90;3.92;;;18.10;99.90;;;;;;5072318;28;20492;-75
2022/04/07 07:26:49;;;;;;;18.08;3.05;;;18.10;99.90;;;;;;5070804;28;20078;-75
2022/04/07 07:29:17;;;;;;;18.85;2.72;;;18.10;99.90;;;;;;5072194;28;20025;-75
2022/04/07 07:31:44;;;;;;;20.20;3.15;;;18.10;99.90;;;;;;5070378;28;20028;-75
2022/04/07 07:34:11;;;;;;;18.00;2.78;;;18.20;99.90;;;;;;5070809;28;20021;-75
2022/04/07 07:36:39;;;;;;;15.60;3.08;;;18.20;99.90;;;;;;5071972;28;20474;-74
2022/04/07 07:39:07;;;;;;;15.77;3.08;;;18.20;99.90;;;;;;5072045;28;20017;-74
2022/04/07 07:41:37;;;;;;;25.88;3.85;;;18.30;99.90;;;;;;5072047;28;20366;-74
2022/04/07 07:44:07;;;;;;;23.70;3.60;;;18.30;99.90;;;;;;5070666;28;20397;-74
2022/04/07 07:46:34;;;;;;;17.73;2.97;;;18.40;99.90;;;;;;5070541;28;20170;-75
2022/04/07 07:49:06;;;;;;;21.00;3.40;;;18.40;99.90;;;;;;5070524;28;20117;-73
2022/04/07 07:51:33;;;;;;;20.30;3.13;;;18.40;99.90;;;;;;5071839;28;20029;-73
2022/04/07 07:54:00;;;;;;;18.02;2.63;;;18.40;99.90;;;;;;5071902;28;20031;-74
2022/04/07 07:56:28;;;;;;;19.10;3.65;;;18.40;99.90;;;;;;5071614;28;20095;-73
2022/04/07 07:58:55;;;;;;;22.55;4.05;;;18.40;99.90;;;;;;5071879;28;20121;-74
2022/04/07 08:01:22;;;;;;;18.73;3.00;;;18.50;99.90;;;;;;5071649;28;20075;-74
2022/04/07 08:03:50;;;;;;;18.67;3.90;;;18.50;99.90;;;;;;5070021;28;20044;-74
2022/04/07 08:06:17;;;;;;;20.40;3.65;;;18.50;99.90;;;;;;5071794;28;20040;-74
2022/04/07 08:08:44;;;;;;;18.98;3.30;;;18.50;99.90;;;;;;5070384;28;20404;-74
2022/04/07 08:11:12;;;;;;;19.58;3.20;;;18.50;99.90;;;;;;5071661;28;20024;-74
2022/04/07 08:13:39;;;;;;;28.88;6.10;;;18.60;99.90;;;;;;5071581;28;20090;-73
2022/04/07 08:16:07;;;;;;;21.80;3.65;;;18.70;99.90;;;;;;5053563;28;20032;-75
2022/04/07 08:18:34;;;;;;;26.55;3.80;;;18.70;99.90;;;;;;5070146;28;20107;-76
2022/04/07 08:21:02;;;;;;;16.77;2.97;;;18.70;99.90;;;;;;5070249;28;20070;-75
2022/04/07 08:23:29;;;;;;;20.85;3.40;;;18.80;99.90;;;;;;5071489;28;20100;-75
2022/04/07 08:25:57;;;;;;;18.95;3.42;;;18.70;99.90;;;;;;5071561;28;20040;-75
2022/04/07 08:28:25;;;;;;;19.75;3.50;;;18.70;99.90;;;;;;5071393;28;20028;-75
2022/04/07 08:30:52;;;;;;;21.20;3.78;;;18.70;99.90;;;;;;5071446;28;20032;-75
2022/04/07 08:33:20;;;;;;;22.70;3.45;;;18.70;99.90;;;;;;5069951;28;20557;-74
2022/04/07 08:35:47;;;;;;;14.13;2.58;;;18.80;99.90;;;;;;5071385;28;20028;-75
2022/04/07 08:38:15;;;;;;;18.08;3.70;;;18.70;99.90;;;;;;5069979;28;20170;-75
2022/04/07 08:40:43;;;;;;;18.02;3.40;;;18.70;99.90;;;;;;5069855;28;20119;-75
2022/04/07 08:43:11;;;;;;;19.23;3.83;;;18.70;99.90;;;;;;5070908;28;20499;-75
2022/04/07 08:45:42;;;;;;;22.70;3.80;;;18.80;99.90;;;;;;5073625;28;20024;-76
2022/04/07 08:48:12;;;;;;;22.30;4.03;;;18.80;99.90;;;;;;5075104;28;20024;-74
2022/04/07 08:50:44;;;;;;;14.38;2.90;;;18.80;99.90;;;;;;5073550;28;20020;-74
2022/04/07 08:53:13;;;;;;;14.68;3.58;;;18.80;99.90;;;;;;5074824;28;20074;-75
2022/04/07 08:55:41;;;;;;;22.48;2.95;;;18.70;99.90;;;;;;5074797;28;20515;-75
2022/04/07 08:58:10;;;;;;;20.58;3.28;;;18.80;99.90;;;;;;5074781;28;20042;-74
2022/04/07 09:00:37;;;;;;;18.55;3.63;;;18.80;99.90;;;;;;5073454;28;20126;-74
2022/04/07 09:03:05;;;;;;;19.25;3.80;;;18.90;99.90;;;;;;5074596;28;20020;-74
2022/04/07 09:05:32;;;;;;;21.23;3.47;;;18.90;99.90;;;;;;5073203;28;20510;-74
2022/04/07 09:08:03;;;;;;;12.70;3.20;;;18.90;99.90;;;;;;5073219;28;20055;-75
2022/04/07 09:10:30;;;;;;;19.80;3.55;;;18.90;99.90;;;;;;5074635;28;20351;-75
2022/04/07 09:13:07;;;;;;;21.50;3.45;;;18.90;99.90;;;;;;5073198;28;20024;-75
2022/04/07 09:15:34;;;;;;;20.45;4.03;;;18.90;99.90;;;;;;5074378;28;20028;-75
2022/04/07 09:18:02;;;;;;;16.70;4.53;;;18.90;99.90;;;;;;5074313;28;20078;-75
2022/04/07 09:20:29;;;;;;;14.13;2.97;;;18.90;99.90;;;;;;5074296;28;20074;-76
2022/04/07 09:23:01;;;;;;;17.95;3.55;;;19.00;99.90;;;;;;5074115;28;20032;-74
2022/04/07 09:25:28;;;;;;;15.35;3.13;;;18.90;99.90;;;;;;5072769;28;20028;-76
2022/04/07 09:28:00;;;;;;;15.73;2.90;;;18.90;99.90;;;;;;5072663;28;20039;-75
2022/04/07 09:30:36;;;;;;;16.95;3.00;;;19.00;99.90;;;;;;5074146;28;20016;-75
2022/04/07 09:33:04;;;;;;;18.88;3.38;;;19.00;99.90;;;;;;5072660;28;20497;-76
2022/04/07 09:35:31;;;;;;;14.88;2.40;;;19.10;99.90;;;;;;5072678;28;20063;-74
2022/04/07 09:38:03;;;;;;;18.52;2.85;;;19.00;99.90;;;;;;5074116;28;20396;-75
2022/04/07 09:40:31;;;;;;;16.65;2.83;;;19.00;99.90;;;;;;5056077;28;20025;-75
2022/04/07 09:42:58;;;;;;;19.33;3.22;;;19.10;99.90;;;;;;5072573;28;20063;-76
2022/04/07 09:45:26;;;;;;;14.80;3.03;;;19.10;99.90;;;;;;5073711;28;20372;-74
2022/04/07 09:47:55;;;;;;;17.65;2.83;;;19.10;99.90;;;;;;5073709;28;20016;-76
2022/04/07 09:50:24;;;;;;;16.80;2.90;;;19.00;99.90;;;;;;5072461;28;20117;-75
2022/04/07 09:53:01;;;;;;;14.82;2.65;;;19.20;99.90;;;;;;5072293;28;20069;-76
2022/04/07 09:55:34;;;;;;;15.68;2.92;;;19.20;99.90;;;;;;5073302;28;20016;-76
2022/04/07 09:58:04;;;;;;;14.32;2.28;;;19.20;99.90;;;;;;5073654;28;20381;-77
2022/04/07 10:00:32;;;;;;;13.48;2.75;;;19.20;99.90;;;;;;5073555;28;20019;-76
2022/04/07 10:02:59;;;;;;;15.32;2.92;;;19.20;99.90;;;;;;5055946;28;20115;-75
2022/04/07 10:05:28;;;;;;;13.50;3.05;;;19.30;99.90;;;;;;5073434;28;20041;-76
2022/04/07 10:07:58;;;;;;;15.00;2.90;;;19.20;99.90;;;;;;5072151;28;20032;-76
2022/04/07 10:10:26;;;;;;;17.33;2.97;;;19.30;99.90;;;;;;5073486;28;20029;-77
2022/04/07 10:12:56;;;;;;;11.38;2.47;;;19.30;99.90;;;;;;5073448;28;20457;-76
2022/04/07 10:15:23;;;;;;;17.00;3.30;;;19.40;99.90;;;;;;5073437;28;20586;-76
2022/04/07 10:17:51;;;;;;;15.05;2.75;;;19.40;99.90;;;;;;5073396;28;20025;-76
2022/04/07 10:20:22;;;;;;;16.50;3.05;;;19.40;99.90;;;;;;5071831;28;20016;-75
2022/04/07 10:23:01;;;;;;;12.80;1.77;;;19.40;99.90;;;;;;5071960;28;20024;-76
2022/04/07 10:25:31;;;;;;;14.48;2.50;;;19.40;99.90;;;;;;5073004;28;20051;-76
2022/04/07 10:28:03;;;;;;;19.15;3.67;;;19.50;99.90;;;;;;5073072;28;20024;-76
2022/04/07 10:30:32;;;;;;;19.50;2.90;;;19.50;99.90;;;;;;5071686;28;20036;-79
2022/04/07 10:33:00;;;;;;;18.58;3.00;;;19.50;99.90;;;;;;5073122;28;20028;-81
2022/04/07 10:35:37;;;;;;;15.35;2.70;;;19.40;99.90;;;;;;5072748;28;20042;-78
2022/04/07 10:38:11;;;;;;;14.95;2.97;;;19.30;99.90;;;;;;5072930;28;20021;-77
2022/04/07 10:40:51;;;;;;;12.98;2.45;;;19.20;99.90;;;;;;5071447;28;20452;-78
2022/04/07 10:43:25;;;;;;;19.92;3.55;;;19.20;99.90;;;;;;5073103;28;20473;-79
2022/04/07 10:46:05;;;;;;;16.02;2.95;;;19.20;99.90;;;;;;5071405;28;20480;-79
2022/04/07 10:48:46;;;;;;;14.43;2.65;;;19.20;99.90;;;;;;5071644;28;20028;-79
2022/04/07 10:51:14;;;;;;;21.25;3.47;;;19.20;99.90;;;;;;5072892;28;20031;-79
2022/04/07 10:54:02;;;;;;;15.82;2.40;;;19.20;99.90;;;;;;5071352;28;20123;-77
2022/04/07 10:56:41;;;;;;;14.82;3.22;;;19.20;99.90;;;;;;5071538;28;20056;-78
2022/04/07 10:59:19;;;;;;;18.15;3.13;;;19.20;99.90;;;;;;5072642;28;20404;-78
2022/04/07 11:01:58;;;;;;;12.90;3.05;;;19.20;99.90;;;;;;5072541;28;20048;-77
2022/04/07 11:04:25;;;;;;;11.60;2.22;;;19.20;99.90;;;;;;5070874;28;20049;-77
2022/04/07 11:07:09;;;;;;;13.40;2.53;;;19.20;99.90;;;;;;5070487;28;20392;-78
2022/04/07 11:10:00;;;;;;;16.15;2.97;;;19.20;99.90;;;;;;5071065;28;20020;-77
2022/04/07 11:12:34;;;;;;;18.15;3.13;;;19.30;99.90;;;;;;5070996;28;20048;-76
2022/04/07 11:15:04;;;;;;;18.42;2.50;;;19.30;99.90;;;;;;5072228;28;20028;-76
2022/04/07 11:17:37;;;;;;;13.82;2.70;;;19.40;99.90;;;;;;5072206;28;20443;-76
2022/04/07 11:20:06;;;;;;;12.88;2.10;;;19.40;99.90;;;;;;5072201;28;20024;-76
2022/04/07 11:22:56;;;;;;;12.32;2.72;;;19.40;99.90;;;;;;5070806;28;20110;-76
2022/04/07 11:25:31;;;;;;;20.75;2.95;;;19.40;99.90;;;;;;5070786;28;20078;-75
2022/04/07 11:28:10;;;;;;;11.57;1.88;;;19.40;99.90;;;;;;5070730;28;20489;-76
2022/04/07 11:30:48;;;;;;;12.30;3.20;;;19.40;99.90;;;;;;5070662;28;20024;-75
2022/04/07 11:33:25;;;;;;;12.35;2.55;;;19.40;99.90;;;;;;5072020;28;20021;-76
2022/04/07 11:36:07;;;;;;;17.45;3.15;;;19.40;99.90;;;;;;5071931;28;20059;-75
2022/04/07 11:38:38;;;;;;;16.40;2.78;;;19.40;99.90;;;;;;5071913;28;20055;-77
2022/04/07 11:41:12;;;;;;;12.63;2.92;;;19.40;99.90;;;;;;5072417;28;20019;-78
2022/04/07 11:43:42;;;;;;;15.60;2.60;;;19.40;99.90;;;;;;5072303;28;20489;-78
2022/04/07 11:46:09;;;;;;;15.53;3.20;;;19.40;99.90;;;;;;5072306;28;20027;-77
2022/04/07 11:48:39;;;;;;;11.63;2.13;;;19.40;99.90;;;;;;5071962;28;20096;-77
2022/04/07 11:51:19;;;;;;;17.20;2.28;;;19.30;99.90;;;;;;5054130;28;20032;-77
2022/04/07 11:53:54;;;;;;;14.73;2.72;;;19.40;99.90;;;;;;5072010;28;20021;-78
2022/04/07 11:56:32;;;;;;;14.35;2.60;;;19.40;99.90;;;;;;5070631;28;20028;-79
2022/04/07 11:59:25;;;;;;;13.90;2.03;;;19.40;99.90;;;;;;5071996;28;20016;-78
2022/04/07 12:01:52;;;;;;;13.98;2.33;;;19.40;99.90;;;;;;5069646;28;20029;-79
2022/04/07 12:04:20;;;;;;;16.38;3.22;;;19.40;99.90;;;;;;5070270;28;20107;-79
2022/04/07 12:06:48;;;;;;;15.52;2.85;;;19.40;99.90;;;;;;5071832;28;20053;-78
2022/04/07 12:09:16;;;;;;;14.15;2.92;;;19.40;99.90;;;;;;5070521;28;20028;-79
2022/04/07 12:11:45;;;;;;;13.18;2.15;;;19.40;99.90;;;;;;5071850;28;20048;-79
2022/04/07 12:14:15;;;;;;;15.73;2.28;;;19.50;99.90;;;;;;5070459;28;20029;-77
2022/04/07 12:16:49;;;;;;;16.02;2.88;;;19.50;99.90;;;;;;5071959;28;20068;-77
2022/04/07 12:19:18;;;;;;;15.18;2.45;;;19.50;99.90;;;;;;5074318;28;20025;-78
2022/04/07 12:21:58;;;;;;;14.05;2.38;;;19.50;99.90;;;;;;5075575;28;20489;-77
2022/04/07 12:24:28;;;;;;;11.43;2.10;;;19.50;99.90;;;;;;5074110;28;20055;-77
2022/04/07 12:26:59;;;;;;;14.10;1.90;;;19.60;99.90;;;;;;5075398;28;20029;-77
2022/04/07 12:29:31;;;;;;;10.82;2.42;;;19.50;99.90;;;;;;5073967;28;20024;-78
2022/04/07 12:31:59;;;;;;;12.02;2.20;;;19.50;99.90;;;;;;5073967;28;20548;-78
2022/04/07 12:34:27;;;;;;;17.35;2.22;;;19.50;99.90;;;;;;5073988;28;20039;-78
2022/04/07 12:36:55;;;;;;;14.43;2.47;;;19.50;99.90;;;;;;5057467;28;20475;-78
2022/04/07 12:39:26;;;;;;;10.18;1.90;;;19.50;99.90;;;;;;5074014;28;20024;-78
2022/04/07 12:42:02;;;;;;;12.45;1.80;;;19.50;99.90;;;;;;5075323;28;20528;-77
2022/04/07 12:44:35;;;;;;;14.23;2.42;;;19.50;99.90;;;;;;5075213;28;20024;-77